sensor_id;sensor_type;location;lat;lon;timestamp;temperature;humidity
30186;DHT22;31152;49.190;8.122;2022-11-15T00:01:18;10.40;99.90
30186;DHT22;31152;49.190;8.122;2022-11-15T00:03:45;10.50;99.90
30186;DHT22;31152;49.190;8.122;2022-11-15T00:06:12;10.40;99.90
30186;DHT22;31152;49.190;8.122;2022-11-15T00:08:39;10.40;99.90
30186;DHT22;31152;49.190;8.122;2022-11-15T00:11:06;10.30;99.90
30186;DHT22;31152;49.190;8.122;2022-11-15T00:13:37;10.40;99.90
30186;DHT22;31152;49.190;8.122;2022-11-15T00:16:04;10.40;99.90
30186;DHT22;31152;49.190;8.122;2022-11-15T00:18:31;10.40;99.90
30186;DHT22;31152;49.190;8.122;2022-11-15T00:21:04;10.40;99.90
30186;DHT22;31152;49.190;8.122;2022-11-15T00:23:32;10.40;99.90
30186;DHT22;31152;49.190;8.122;2022-11-15T00:25:59;10.50;99.90
30186;DHT22;31152;49.190;8.122;2022-11-15T00:28:26;10.40;99.90
30186;DHT22;31152;49.190;8.122;2022-11-15T00:30:53;10.50;99.90
30186;DHT22;31152;49.190;8.122;2022-11-15T00:33:19;10.50;99.90
30186;DHT22;31152;49.190;8.122;2022-11-15T00:35:46;10.50;99.90
30186;DHT22;31152;49.190;8.122;2022-11-15T00:38:13;10.50;99.90
30186;DHT22;31152;49.190;8.122;2022-11-15T00:40:40;10.60;99.90
30186;DHT22;31152;49.190;8.122;2022-11-15T00:43:06;10.60;99.90
30186;DHT22;31152;49.190;8.122;2022-11-15T00:45:33;10.60;99.90
30186;DHT22;31152;49.190;8.122;2022-11-15T00:48:02;10.60;99.90
30186;DHT22;31152;49.190;8.122;2022-11-15T00:50:29;10.60;99.90
30186;DHT22;31152;49.190;8.122;2022-11-15T00:52:55;10.60;99.90
30186;DHT22;31152;49.190;8.122;2022-11-15T00:55:22;10.60;99.90
30186;DHT22;31152;49.190;8.122;2022-11-15T00:57:49;10.60;99.90
30186;DHT22;31152;49.190;8.122;2022-11-15T01:00:16;10.60;99.90
30186;DHT22;31152;49.190;8.122;2022-11-15T01:02:43;10.60;99.90
30186;DHT22;31152;49.190;8.122;2022-11-15T01:05:09;10.60;99.90
30186;DHT22;31152;49.190;8.122;2022-11-15T01:07:38;10.70;99.90
30186;DHT22;31152;49.190;8.122;2022-11-15T01:10:05;10.70;99.90
30186;DHT22;31152;49.190;8.122;2022-11-15T01:12:32;10.70;99.90
30186;DHT22;31152;49.190;8.122;2022-11-15T01:14:59;10.70;99.90
30186;DHT22;31152;49.190;8.122;2022-11-15T01:17:25;10.70;99.90
30186;DHT22;31152;49.190;8.122;2022-11-15T01:19:55;10.70;99.90
30186;DHT22;31152;49.190;8.122;2022-11-15T01:22:21;10.70;99.90
30186;DHT22;31152;49.190;8.122;2022-11-15T01:24:51;10.70;99.90
30186;DHT22;31152;49.190;8.122;2022-11-15T01:27:18;10.80;99.90
30186;DHT22;31152;49.190;8.122;2022-11-15T01:29:44;10.90;99.90
30186;DHT22;31152;49.190;8.122;2022-11-15T01:32:14;10.80;99.90
30186;DHT22;31152;49.190;8.122;2022-11-15T01:34:40;10.90;99.90
30186;DHT22;31152;49.190;8.122;2022-11-15T01:37:07;10.90;99.90
30186;DHT22;31152;49.190;8.122;2022-11-15T01:39:34;10.80;99.90
30186;DHT22;31152;49.190;8.122;2022-11-15T01:42:01;10.90;99.90
30186;DHT22;31152;49.190;8.122;2022-11-15T01:44:34;11.00;99.90
30186;DHT22;31152;49.190;8.122;2022-11-15T01:47:29;11.00;99.90
30186;DHT22;31152;49.190;8.122;2022-11-15T01:52:31;11.00;99.90
30186;DHT22;31152;49.190;8.122;2022-11-15T01:55:18;11.00;99.90
30186;DHT22;31152;49.190;8.122;2022-11-15T01:57:47;11.10;99.90
30186;DHT22;31152;49.190;8.122;2022-11-15T02:00:17;11.00;99.90
30186;DHT22;31152;49.190;8.122;2022-11-15T02:02:44;11.00;99.90
30186;DHT22;31152;49.190;8.122;2022-11-15T02:05:11;11.00;99.90
30186;DHT22;31152;49.190;8.122;2022-11-15T02:07:38;11.00;99.90
30186;DHT22;31152;49.190;8.122;2022-11-15T02:10:14;11.00;99.90
30186;DHT22;31152;49.190;8.122;2022-11-15T02:12:49;11.00;99.90
30186;DHT22;31152;49.190;8.122;2022-11-15T02:15:16;11.00;99.90
30186;DHT22;31152;49.190;8.122;2022-11-15T02:17:47;11.00;99.90
30186;DHT22;31152;49.190;8.122;2022-11-15T02:20:35;10.90;99.90
30186;DHT22;31152;49.190;8.122;2022-11-15T02:26:40;10.80;99.90
30186;DHT22;31152;49.190;8.122;2022-11-15T02:32:04;10.70;99.90
30186;DHT22;31152;49.190;8.122;2022-11-15T02:37:59;10.60;99.90
30186;DHT22;31152;49.190;8.122;2022-11-15T02:40:36;10.50;99.90
30186;DHT22;31152;49.190;8.122;2022-11-15T02:43:11;10.50;99.90
30186;DHT22;31152;49.190;8.122;2022-11-15T02:46:04;10.40;99.90
30186;DHT22;31152;49.190;8.122;2022-11-15T02:48:33;10.30;99.90
30186;DHT22;31152;49.190;8.122;2022-11-15T02:51:01;10.30;99.90
30186;DHT22;31152;49.190;8.122;2022-11-15T02:53:28;10.20;99.90
30186;DHT22;31152;49.190;8.122;2022-11-15T02:55:56;10.20;99.90
30186;DHT22;31152;49.190;8.122;2022-11-15T02:58:45;10.10;99.90
30186;DHT22;31152;49.190;8.122;2022-11-15T03:04:06;10.10;99.90
30186;DHT22;31152;49.190;8.122;2022-11-15T03:06:40;10.10;99.90
30186;DHT22;31152;49.190;8.122;2022-11-15T03:09:14;10.00;99.90
30186;DHT22;31152;49.190;8.122;2022-11-15T03:11:49;10.00;99.90
30186;DHT22;31152;49.190;8.122;2022-11-15T03:19:50;10.00;99.90
30186;DHT22;31152;49.190;8.122;2022-11-15T03:22:23;10.00;99.90
30186;DHT22;31152;49.190;8.122;2022-11-15T03:24:54;10.00;99.90
30186;DHT22;31152;49.190;8.122;2022-11-15T03:27:24;10.00;99.90
30186;DHT22;31152;49.190;8.122;2022-11-15T03:29:59;10.10;99.90
30186;DHT22;31152;49.190;8.122;2022-11-15T03:32:31;10.10;99.90
30186;DHT22;31152;49.190;8.122;2022-11-15T03:35:13;10.10;99.90
30186;DHT22;31152;49.190;8.122;2022-11-15T03:38:08;10.20;99.90
30186;DHT22;31152;49.190;8.122;2022-11-15T03:40:42;10.20;99.90
30186;DHT22;31152;49.190;8.122;2022-11-15T03:46:02;10.20;99.90
30186;DHT22;31152;49.190;8.122;2022-11-15T03:48:43;10.20;99.90
30186;DHT22;31152;49.190;8.122;2022-11-15T03:51:11;10.20;99.90
30186;DHT22;31152;49.190;8.122;2022-11-15T03:53:38;10.20;99.90
30186;DHT22;31152;49.190;8.122;2022-11-15T03:56:05;10.20;99.90
30186;DHT22;31152;49.190;8.122;2022-11-15T03:58:32;10.20;99.90
30186;DHT22;31152;49.190;8.122;2022-11-15T04:00:58;10.20;99.90
30186;DHT22;31152;49.190;8.122;2022-11-15T04:03:28;10.20;99.90
30186;DHT22;31152;49.190;8.122;2022-11-15T04:05:55;10.20;99.90
30186;DHT22;31152;49.190;8.122;2022-11-15T04:08:22;10.20;99.90
30186;DHT22;31152;49.190;8.122;2022-11-15T04:10:49;10.20;99.90
30186;DHT22;31152;49.190;8.122;2022-11-15T04:13:16;10.20;99.90
30186;DHT22;31152;49.190;8.122;2022-11-15T04:15:43;10.20;99.90
30186;DHT22;31152;49.190;8.122;2022-11-15T04:18:09;10.20;99.90
30186;DHT22;31152;49.190;8.122;2022-11-15T04:20:36;10.10;99.90
30186;DHT22;31152;49.190;8.122;2022-11-15T04:23:24;10.10;99.90
30186;DHT22;31152;49.190;8.122;2022-11-15T04:26:18;10.10;99.90
30186;DHT22;31152;49.190;8.122;2022-11-15T04:28:45;10.10;99.90
30186;DHT22;31152;49.190;8.122;2022-11-15T04:31:31;10.10;99.90
30186;DHT22;31152;49.190;8.122;2022-11-15T04:33:58;10.10;99.90
30186;DHT22;31152;49.190;8.122;2022-11-15T04:36:27;10.10;99.90
30186;DHT22;31152;49.190;8.122;2022-11-15T04:39:12;10.20;99.90
30186;DHT22;31152;49.190;8.122;2022-11-15T04:41:41;10.10;99.90
30186;DHT22;31152;49.190;8.122;2022-11-15T04:44:10;10.20;99.90
30186;DHT22;31152;49.190;8.122;2022-11-15T04:46:37;10.20;99.90
30186;DHT22;31152;49.190;8.122;2022-11-15T04:49:03;10.10;99.90
30186;DHT22;31152;49.190;8.122;2022-11-15T04:51:30;10.10;99.90
30186;DHT22;31152;49.190;8.122;2022-11-15T04:53:57;10.10;99.90
30186;DHT22;31152;49.190;8.122;2022-11-15T04:56:23;10.10;99.90
30186;DHT22;31152;49.190;8.122;2022-11-15T04:58:53;10.10;99.90
30186;DHT22;31152;49.190;8.122;2022-11-15T05:01:19;10.10;99.90
30186;DHT22;31152;49.190;8.122;2022-11-15T05:03:46;10.10;99.90
30186;DHT22;31152;49.190;8.122;2022-11-15T05:06:31;10.20;99.90
30186;DHT22;31152;49.190;8.122;2022-11-15T05:09:00;10.10;99.90
30186;DHT22;31152;49.190;8.122;2022-11-15T05:11:27;10.10;99.90
30186;DHT22;31152;49.190;8.122;2022-11-15T05:13:54;10.10;99.90
30186;DHT22;31152;49.190;8.122;2022-11-15T05:16:21;10.10;99.90
30186;DHT22;31152;49.190;8.122;2022-11-15T05:18:51;10.10;99.90
30186;DHT22;31152;49.190;8.122;2022-11-15T05:21:22;10.10;99.90
30186;DHT22;31152;49.190;8.122;2022-11-15T05:23:49;10.10;99.90
30186;DHT22;31152;49.190;8.122;2022-11-15T05:26:17;10.10;99.90
30186;DHT22;31152;49.190;8.122;2022-11-15T05:28:44;10.10;99.90
30186;DHT22;31152;49.190;8.122;2022-11-15T05:31:14;10.00;99.90
30186;DHT22;31152;49.190;8.122;2022-11-15T05:33:41;10.00;99.90
30186;DHT22;31152;49.190;8.122;2022-11-15T05:36:38;10.10;99.90
30186;DHT22;31152;49.190;8.122;2022-11-15T05:39:06;10.00;99.90
30186;DHT22;31152;49.190;8.122;2022-11-15T05:41:45;10.10;99.90
30186;DHT22;31152;49.190;8.122;2022-11-15T05:44:14;10.10;99.90
30186;DHT22;31152;49.190;8.122;2022-11-15T05:46:43;10.10;99.90
30186;DHT22;31152;49.190;8.122;2022-11-15T05:49:13;10.10;99.90
30186;DHT22;31152;49.190;8.122;2022-11-15T05:51:42;10.00;99.90
30186;DHT22;31152;49.190;8.122;2022-11-15T05:54:10;10.00;99.90
30186;DHT22;31152;49.190;8.122;2022-11-15T05:56:39;10.00;99.90
30186;DHT22;31152;49.190;8.122;2022-11-15T05:59:09;10.00;99.90
30186;DHT22;31152;49.190;8.122;2022-11-15T06:01:40;10.00;99.90
30186;DHT22;31152;49.190;8.122;2022-11-15T06:04:06;10.00;99.90
30186;DHT22;31152;49.190;8.122;2022-11-15T06:06:33;10.00;99.90
30186;DHT22;31152;49.190;8.122;2022-11-15T06:09:00;10.00;99.90
30186;DHT22;31152;49.190;8.122;2022-11-15T06:11:27;10.00;99.90
30186;DHT22;31152;49.190;8.122;2022-11-15T06:13:54;9.90;99.90
30186;DHT22;31152;49.190;8.122;2022-11-15T06:16:23;9.90;99.90
30186;DHT22;31152;49.190;8.122;2022-11-15T06:18:52;9.90;99.90
30186;DHT22;31152;49.190;8.122;2022-11-15T06:21:19;9.80;99.90
30186;DHT22;31152;49.190;8.122;2022-11-15T06:23:46;9.80;99.90
30186;DHT22;31152;49.190;8.122;2022-11-15T06:26:12;9.80;99.90
30186;DHT22;31152;49.190;8.122;2022-11-15T06:28:39;9.80;99.90
30186;DHT22;31152;49.190;8.122;2022-11-15T06:31:08;9.80;99.90
30186;DHT22;31152;49.190;8.122;2022-11-15T06:33:35;9.80;99.90
30186;DHT22;31152;49.190;8.122;2022-11-15T06:36:07;9.80;99.90
30186;DHT22;31152;49.190;8.122;2022-11-15T06:38:44;9.80;99.90
30186;DHT22;31152;49.190;8.122;2022-11-15T06:41:12;9.70;99.90
30186;DHT22;31152;49.190;8.122;2022-11-15T06:43:41;9.70;99.90
30186;DHT22;31152;49.190;8.122;2022-11-15T06:46:08;9.70;99.90
30186;DHT22;31152;49.190;8.122;2022-11-15T06:48:35;9.70;99.90
30186;DHT22;31152;49.190;8.122;2022-11-15T06:51:05;9.60;99.90
30186;DHT22;31152;49.190;8.122;2022-11-15T06:53:33;9.60;99.90
30186;DHT22;31152;49.190;8.122;2022-11-15T06:56:05;9.50;99.90
30186;DHT22;31152;49.190;8.122;2022-11-15T06:58:33;9.50;99.90
30186;DHT22;31152;49.190;8.122;2022-11-15T07:01:05;9.40;99.90
30186;DHT22;31152;49.190;8.122;2022-11-15T07:03:35;9.40;99.90
30186;DHT22;31152;49.190;8.122;2022-11-15T07:06:03;9.40;99.90
30186;DHT22;31152;49.190;8.122;2022-11-15T07:08:33;9.40;99.90
30186;DHT22;31152;49.190;8.122;2022-11-15T07:11:03;9.50;99.90
30186;DHT22;31152;49.190;8.122;2022-11-15T07:13:32;9.50;99.90
30186;DHT22;31152;49.190;8.122;2022-11-15T07:16:10;9.50;99.90
30186;DHT22;31152;49.190;8.122;2022-11-15T07:18:38;9.50;99.90
30186;DHT22;31152;49.190;8.122;2022-11-15T07:21:07;9.50;99.90
30186;DHT22;31152;49.190;8.122;2022-11-15T07:23:37;9.60;99.90
30186;DHT22;31152;49.190;8.122;2022-11-15T07:26:07;9.60;99.90
30186;DHT22;31152;49.190;8.122;2022-11-15T07:28:34;9.60;99.90
30186;DHT22;31152;49.190;8.122;2022-11-15T07:31:06;9.60;99.90
30186;DHT22;31152;49.190;8.122;2022-11-15T07:33:34;9.70;99.90
30186;DHT22;31152;49.190;8.122;2022-11-15T07:36:04;9.70;99.90
30186;DHT22;31152;49.190;8.122;2022-11-15T07:38:33;9.70;99.90
30186;DHT22;31152;49.190;8.122;2022-11-15T07:41:08;9.70;99.90
30186;DHT22;31152;49.190;8.122;2022-11-15T07:43:35;9.80;99.90
30186;DHT22;31152;49.190;8.122;2022-11-15T07:46:06;9.80;99.90
30186;DHT22;31152;49.190;8.122;2022-11-15T07:48:37;9.80;99.90
30186;DHT22;31152;49.190;8.122;2022-11-15T07:51:12;9.80;99.90
30186;DHT22;31152;49.190;8.122;2022-11-15T07:53:40;9.90;99.90
30186;DHT22;31152;49.190;8.122;2022-11-15T07:56:08;9.90;99.90
30186;DHT22;31152;49.190;8.122;2022-11-15T07:58:35;9.90;99.90
30186;DHT22;31152;49.190;8.122;2022-11-15T08:01:06;9.90;99.90
30186;DHT22;31152;49.190;8.122;2022-11-15T08:03:33;10.00;99.90
30186;DHT22;31152;49.190;8.122;2022-11-15T08:06:01;10.00;99.90
30186;DHT22;31152;49.190;8.122;2022-11-15T08:08:30;10.00;99.90
30186;DHT22;31152;49.190;8.122;2022-11-15T08:11:00;10.10;99.90
30186;DHT22;31152;49.190;8.122;2022-11-15T08:13:27;10.10;99.90
30186;DHT22;31152;49.190;8.122;2022-11-15T08:15:59;10.10;99.90
30186;DHT22;31152;49.190;8.122;2022-11-15T08:18:26;10.10;99.90
30186;DHT22;31152;49.190;8.122;2022-11-15T08:20:53;10.10;99.90
30186;DHT22;31152;49.190;8.122;2022-11-15T08:23:19;10.20;99.90
30186;DHT22;31152;49.190;8.122;2022-11-15T08:25:46;10.20;99.90
30186;DHT22;31152;49.190;8.122;2022-11-15T08:28:15;10.20;99.90
30186;DHT22;31152;49.190;8.122;2022-11-15T08:30:43;10.20;99.90
30186;DHT22;31152;49.190;8.122;2022-11-15T08:33:13;10.30;99.90
30186;DHT22;31152;49.190;8.122;2022-11-15T08:35:43;10.30;99.90
30186;DHT22;31152;49.190;8.122;2022-11-15T08:38:10;10.30;99.90
30186;DHT22;31152;49.190;8.122;2022-11-15T08:40:38;10.40;99.90
30186;DHT22;31152;49.190;8.122;2022-11-15T08:43:04;10.40;99.90
30186;DHT22;31152;49.190;8.122;2022-11-15T08:45:34;10.40;99.90
30186;DHT22;31152;49.190;8.122;2022-11-15T08:48:04;10.40;99.90
30186;DHT22;31152;49.190;8.122;2022-11-15T08:50:30;10.40;99.90
30186;DHT22;31152;49.190;8.122;2022-11-15T08:53:05;10.50;99.90
30186;DHT22;31152;49.190;8.122;2022-11-15T08:55:35;10.50;99.90
30186;DHT22;31152;49.190;8.122;2022-11-15T08:58:04;10.50;99.90
30186;DHT22;31152;49.190;8.122;2022-11-15T09:00:31;10.50;99.90
30186;DHT22;31152;49.190;8.122;2022-11-15T09:02:58;10.60;99.90
30186;DHT22;31152;49.190;8.122;2022-11-15T09:05:27;10.60;99.90
30186;DHT22;31152;49.190;8.122;2022-11-15T09:07:54;10.60;99.90
30186;DHT22;31152;49.190;8.122;2022-11-15T09:10:23;10.60;99.90
30186;DHT22;31152;49.190;8.122;2022-11-15T09:12:51;10.70;99.90
30186;DHT22;31152;49.190;8.122;2022-11-15T09:15:18;10.70;99.90
30186;DHT22;31152;49.190;8.122;2022-11-15T09:17:46;10.70;99.90
30186;DHT22;31152;49.190;8.122;2022-11-15T09:20:12;10.70;99.90
30186;DHT22;31152;49.190;8.122;2022-11-15T09:22:39;10.70;99.90
30186;DHT22;31152;49.190;8.122;2022-11-15T09:25:08;10.80;99.90
30186;DHT22;31152;49.190;8.122;2022-11-15T09:27:36;10.80;99.90
30186;DHT22;31152;49.190;8.122;2022-11-15T09:30:04;10.80;99.90
30186;DHT22;31152;49.190;8.122;2022-11-15T09:32:33;10.80;99.90
30186;DHT22;31152;49.190;8.122;2022-11-15T09:35:05;10.80;99.90
30186;DHT22;31152;49.190;8.122;2022-11-15T09:37:32;10.90;99.90
30186;DHT22;31152;49.190;8.122;2022-11-15T09:39:59;10.90;99.90
30186;DHT22;31152;49.190;8.122;2022-11-15T09:48:10;11.00;99.90
30186;DHT22;31152;49.190;8.122;2022-11-15T09:50:50;11.10;99.90
30186;DHT22;31152;49.190;8.122;2022-11-15T09:56:32;11.20;99.90
30186;DHT22;31152;49.190;8.122;2022-11-15T10:04:13;11.30;99.90
30186;DHT22;31152;49.190;8.122;2022-11-15T10:06:46;11.40;99.90
30186;DHT22;31152;49.190;8.122;2022-11-15T10:09:21;11.40;99.90
30186;DHT22;31152;49.190;8.122;2022-11-15T10:11:50;11.40;99.90
30186;DHT22;31152;49.190;8.122;2022-11-15T10:14:25;11.40;99.90
30186;DHT22;31152;49.190;8.122;2022-11-15T10:17:14;11.50;99.90
30186;DHT22;31152;49.190;8.122;2022-11-15T10:22:35;11.50;99.90
30186;DHT22;31152;49.190;8.122;2022-11-15T10:27:41;11.60;99.90
30186;DHT22;31152;49.190;8.122;2022-11-15T10:30:16;11.60;99.90
30186;DHT22;31152;49.190;8.122;2022-11-15T10:32:45;11.70;99.90
30186;DHT22;31152;49.190;8.122;2022-11-15T10:35:25;11.70;99.90
30186;DHT22;31152;49.190;8.122;2022-11-15T10:38:10;11.80;99.90
30186;DHT22;31152;49.190;8.122;2022-11-15T10:40:39;11.80;99.90
30186;DHT22;31152;49.190;8.122;2022-11-15T10:43:13;11.90;99.90
30186;DHT22;31152;49.190;8.122;2022-11-15T10:45:46;11.90;99.90
30186;DHT22;31152;49.190;8.122;2022-11-15T10:50:44;12.10;99.90
30186;DHT22;31152;49.190;8.122;2022-11-15T10:53:29;12.30;99.90
30186;DHT22;31152;49.190;8.122;2022-11-15T10:56:02;12.60;99.90
30186;DHT22;31152;49.190;8.122;2022-11-15T10:58:36;12.80;99.90
30186;DHT22;31152;49.190;8.122;2022-11-15T11:01:13;13.10;99.90
30186;DHT22;31152;49.190;8.122;2022-11-15T11:03:42;13.20;99.90
30186;DHT22;31152;49.190;8.122;2022-11-15T11:06:12;13.30;99.90
30186;DHT22;31152;49.190;8.122;2022-11-15T11:08:42;13.40;99.90
30186;DHT22;31152;49.190;8.122;2022-11-15T11:11:20;13.30;99.90
30186;DHT22;31152;49.190;8.122;2022-11-15T11:13:46;13.30;99.90
30186;DHT22;31152;49.190;8.122;2022-11-15T11:18:57;13.20;99.90
30186;DHT22;31152;49.190;8.122;2022-11-15T11:21:44;13.20;99.90
30186;DHT22;31152;49.190;8.122;2022-11-15T11:24:48;13.30;99.90
30186;DHT22;31152;49.190;8.122;2022-11-15T11:30:09;13.30;99.90
30186;DHT22;31152;49.190;8.122;2022-11-15T11:38:04;13.40;99.90
30186;DHT22;31152;49.190;8.122;2022-11-15T11:40:44;13.30;99.90
30186;DHT22;31152;49.190;8.122;2022-11-15T11:49:12;13.30;99.90
30186;DHT22;31152;49.190;8.122;2022-11-15T11:51:45;13.30;99.90
30186;DHT22;31152;49.190;8.122;2022-11-15T12:00:27;13.20;99.90
30186;DHT22;31152;49.190;8.122;2022-11-15T12:03:48;13.20;99.90
30186;DHT22;31152;49.190;8.122;2022-11-15T12:09:13;13.30;99.90
30186;DHT22;31152;49.190;8.122;2022-11-15T12:14:27;13.30;99.90
30186;DHT22;31152;49.190;8.122;2022-11-15T12:16:58;13.40;99.90
30186;DHT22;31152;49.190;8.122;2022-11-15T12:19:29;13.40;99.90
30186;DHT22;31152;49.190;8.122;2022-11-15T12:22:00;13.50;99.90
30186;DHT22;31152;49.190;8.122;2022-11-15T12:24:57;13.50;99.90
30186;DHT22;31152;49.190;8.122;2022-11-15T12:27:51;13.70;99.90
30186;DHT22;31152;49.190;8.122;2022-11-15T12:30:23;13.80;99.90
30186;DHT22;31152;49.190;8.122;2022-11-15T12:32:59;13.90;99.90
30186;DHT22;31152;49.190;8.122;2022-11-15T12:35:35;14.00;99.90
30186;DHT22;31152;49.190;8.122;2022-11-15T12:38:03;14.10;99.90
30186;DHT22;31152;49.190;8.122;2022-11-15T12:40:38;14.10;99.90
30186;DHT22;31152;49.190;8.122;2022-11-15T12:45:45;14.30;99.90
30186;DHT22;31152;49.190;8.122;2022-11-15T12:59:00;14.60;99.90
30186;DHT22;31152;49.190;8.122;2022-11-15T13:15:01;14.30;99.90
30186;DHT22;31152;49.190;8.122;2022-11-15T13:17:52;14.20;99.90
30186;DHT22;31152;49.190;8.122;2022-11-15T13:20:27;14.10;99.90
30186;DHT22;31152;49.190;8.122;2022-11-15T13:23:14;14.10;99.90
30186;DHT22;31152;49.190;8.122;2022-11-15T13:26:13;14.00;99.90
30186;DHT22;31152;49.190;8.122;2022-11-15T13:28:48;13.90;99.90
30186;DHT22;31152;49.190;8.122;2022-11-15T13:31:42;13.80;99.90
30186;DHT22;31152;49.190;8.122;2022-11-15T13:34:31;13.80;99.90
30186;DHT22;31152;49.190;8.122;2022-11-15T13:39:50;13.80;99.90
30186;DHT22;31152;49.190;8.122;2022-11-15T13:42:19;13.80;99.90
30186;DHT22;31152;49.190;8.122;2022-11-15T13:45:00;13.80;99.90
30186;DHT22;31152;49.190;8.122;2022-11-15T13:47:28;13.80;99.90
30186;DHT22;31152;49.190;8.122;2022-11-15T13:49:59;13.70;99.90
30186;DHT22;31152;49.190;8.122;2022-11-15T13:52:33;13.70;99.90
30186;DHT22;31152;49.190;8.122;2022-11-15T13:57:42;13.80;99.90
30186;DHT22;31152;49.190;8.122;2022-11-15T14:00:32;13.80;99.90
30186;DHT22;31152;49.190;8.122;2022-11-15T14:03:25;13.70;99.90
30186;DHT22;31152;49.190;8.122;2022-11-15T14:06:12;13.80;99.90
30186;DHT22;31152;49.190;8.122;2022-11-15T14:08:58;13.80;99.90
30186;DHT22;31152;49.190;8.122;2022-11-15T14:11:25;13.80;99.90
30186;DHT22;31152;49.190;8.122;2022-11-15T14:16:46;13.80;99.90
30186;DHT22;31152;49.190;8.122;2022-11-15T14:24:42;13.90;99.90
30186;DHT22;31152;49.190;8.122;2022-11-15T14:27:22;14.00;99.90
30186;DHT22;31152;49.190;8.122;2022-11-15T14:29:52;13.90;99.90
30186;DHT22;31152;49.190;8.122;2022-11-15T14:32:43;13.90;99.90
30186;DHT22;31152;49.190;8.122;2022-11-15T14:35:22;13.90;99.90
30186;DHT22;31152;49.190;8.122;2022-11-15T14:37:49;14.00;99.90
30186;DHT22;31152;49.190;8.122;2022-11-15T14:40:20;13.90;99.90
30186;DHT22;31152;49.190;8.122;2022-11-15T14:42:49;13.90;99.90
30186;DHT22;31152;49.190;8.122;2022-11-15T14:45:21;13.90;99.90
30186;DHT22;31152;49.190;8.122;2022-11-15T14:47:48;13.80;99.90
30186;DHT22;31152;49.190;8.122;2022-11-15T14:50:17;13.80;99.90
30186;DHT22;31152;49.190;8.122;2022-11-15T14:52:47;13.70;99.90
30186;DHT22;31152;49.190;8.122;2022-11-15T14:55:24;13.70;99.90
30186;DHT22;31152;49.190;8.122;2022-11-15T14:57:51;13.60;99.90
30186;DHT22;31152;49.190;8.122;2022-11-15T15:00:21;13.60;99.90
30186;DHT22;31152;49.190;8.122;2022-11-15T15:02:50;13.60;99.90
30186;DHT22;31152;49.190;8.122;2022-11-15T15:05:21;13.50;99.90
30186;DHT22;31152;49.190;8.122;2022-11-15T15:07:51;13.50;99.90
30186;DHT22;31152;49.190;8.122;2022-11-15T15:10:23;13.50;99.90
30186;DHT22;31152;49.190;8.122;2022-11-15T15:13:18;13.40;99.90
30186;DHT22;31152;49.190;8.122;2022-11-15T15:15:49;13.40;99.90
30186;DHT22;31152;49.190;8.122;2022-11-15T15:18:19;13.40;99.90
30186;DHT22;31152;49.190;8.122;2022-11-15T15:20:53;13.40;99.90
30186;DHT22;31152;49.190;8.122;2022-11-15T15:23:20;13.30;99.90
30186;DHT22;31152;49.190;8.122;2022-11-15T15:25:47;13.30;99.90
30186;DHT22;31152;49.190;8.122;2022-11-15T15:28:15;13.30;99.90
30186;DHT22;31152;49.190;8.122;2022-11-15T15:30:42;13.30;99.90
30186;DHT22;31152;49.190;8.122;2022-11-15T15:33:09;13.20;99.90
30186;DHT22;31152;49.190;8.122;2022-11-15T15:35:36;13.20;99.90
30186;DHT22;31152;49.190;8.122;2022-11-15T15:38:04;13.20;99.90
30186;DHT22;31152;49.190;8.122;2022-11-15T15:40:32;13.10;99.90
30186;DHT22;31152;49.190;8.122;2022-11-15T15:43:00;13.10;99.90
30186;DHT22;31152;49.190;8.122;2022-11-15T15:45:38;13.10;99.90
30186;DHT22;31152;49.190;8.122;2022-11-15T15:48:07;13.00;99.90
30186;DHT22;31152;49.190;8.122;2022-11-15T15:50:38;13.00;99.90
30186;DHT22;31152;49.190;8.122;2022-11-15T15:53:05;13.00;99.90
30186;DHT22;31152;49.190;8.122;2022-11-15T15:55:32;13.00;99.90
30186;DHT22;31152;49.190;8.122;2022-11-15T15:57:59;13.00;99.90
30186;DHT22;31152;49.190;8.122;2022-11-15T16:00:26;13.00;99.90
30186;DHT22;31152;49.190;8.122;2022-11-15T16:02:54;12.90;99.90
30186;DHT22;31152;49.190;8.122;2022-11-15T16:05:21;12.90;99.90
30186;DHT22;31152;49.190;8.122;2022-11-15T16:07:49;12.90;99.90
30186;DHT22;31152;49.190;8.122;2022-11-15T16:10:31;12.80;99.90
30186;DHT22;31152;49.190;8.122;2022-11-15T16:13:01;12.90;99.90
30186;DHT22;31152;49.190;8.122;2022-11-15T16:15:31;12.80;99.90
30186;DHT22;31152;49.190;8.122;2022-11-15T16:18:00;12.70;99.90
30186;DHT22;31152;49.190;8.122;2022-11-15T16:20:40;12.80;99.90
30186;DHT22;31152;49.190;8.122;2022-11-15T16:23:11;12.70;99.90
30186;DHT22;31152;49.190;8.122;2022-11-15T16:25:53;12.70;99.90
30186;DHT22;31152;49.190;8.122;2022-11-15T16:28:30;12.70;99.90
30186;DHT22;31152;49.190;8.122;2022-11-15T16:31:08;12.70;99.90
30186;DHT22;31152;49.190;8.122;2022-11-15T16:33:36;12.70;99.90
30186;DHT22;31152;49.190;8.122;2022-11-15T16:36:12;12.70;99.90
30186;DHT22;31152;49.190;8.122;2022-11-15T16:38:40;12.70;99.90
30186;DHT22;31152;49.190;8.122;2022-11-15T16:41:07;12.70;99.90
30186;DHT22;31152;49.190;8.122;2022-11-15T16:43:34;12.60;99.90
30186;DHT22;31152;49.190;8.122;2022-11-15T16:46:17;12.60;99.90
30186;DHT22;31152;49.190;8.122;2022-11-15T16:48:48;12.60;99.90
30186;DHT22;31152;49.190;8.122;2022-11-15T16:51:15;12.50;99.90
30186;DHT22;31152;49.190;8.122;2022-11-15T16:53:43;12.50;99.90
30186;DHT22;31152;49.190;8.122;2022-11-15T16:56:25;12.50;99.90
30186;DHT22;31152;49.190;8.122;2022-11-15T16:58:53;12.50;99.90
30186;DHT22;31152;49.190;8.122;2022-11-15T17:01:23;12.40;99.90
30186;DHT22;31152;49.190;8.122;2022-11-15T17:03:50;12.40;99.90
30186;DHT22;31152;49.190;8.122;2022-11-15T17:06:20;12.40;99.90
30186;DHT22;31152;49.190;8.122;2022-11-15T17:08:48;12.40;99.90
30186;DHT22;31152;49.190;8.122;2022-11-15T17:11:19;12.30;99.90
30186;DHT22;31152;49.190;8.122;2022-11-15T17:13:47;12.30;99.90
30186;DHT22;31152;49.190;8.122;2022-11-15T17:16:16;12.30;99.90
30186;DHT22;31152;49.190;8.122;2022-11-15T17:18:50;12.30;99.90
30186;DHT22;31152;49.190;8.122;2022-11-15T17:21:20;12.20;99.90
30186;DHT22;31152;49.190;8.122;2022-11-15T17:23:47;12.20;99.90
30186;DHT22;31152;49.190;8.122;2022-11-15T17:26:15;12.20;99.90
30186;DHT22;31152;49.190;8.122;2022-11-15T17:29:02;12.10;99.90
30186;DHT22;31152;49.190;8.122;2022-11-15T17:31:29;12.10;99.90
30186;DHT22;31152;49.190;8.122;2022-11-15T17:34:01;12.10;99.90
30186;DHT22;31152;49.190;8.122;2022-11-15T17:36:30;12.10;99.90
30186;DHT22;31152;49.190;8.122;2022-11-15T17:38:57;12.10;99.90
30186;DHT22;31152;49.190;8.122;2022-11-15T17:41:26;12.10;99.90
30186;DHT22;31152;49.190;8.122;2022-11-15T17:43:57;12.10;99.90
30186;DHT22;31152;49.190;8.122;2022-11-15T17:46:25;12.00;99.90
30186;DHT22;31152;49.190;8.122;2022-11-15T17:48:54;12.00;99.90
30186;DHT22;31152;49.190;8.122;2022-11-15T17:51:24;12.10;99.90
30186;DHT22;31152;49.190;8.122;2022-11-15T17:53:54;12.10;99.90